Crystal Springs, Mississippi
Current Conditions -  °F | °C
As of 6:35 AM on Sunday 28 Dec 2014 (Local Time) from KJVW Reporting Station
Overcast Overcast  
Wind Chill: 41°   Ceiling: 300
Heat Index: 46°   Visibility: 10mi
Dew Point: 41°   Wind: 10mph
Humidity: 81%   Direction: 320°NW
Pressure: 30.14"   Gusts: NA
Location:  31.99°N, 90.36°W
Report Text: KJVW 281235Z AUTO 32009KT 10SM OVC003 08/05 A3014 RMK AO2
Loading
Personal Weather Stations






























Interactive Weather Map New forecast layout! Learn more

10-Day Weather Forecast

Advertisements
Track Severe Weather on mobile